sensor_id;sensor_type;location;lat;lon;timestamp;pressure;altitude;pressure_sealevel;temperature;humidity
64687;BME280;51113;53.646;-113.674;2023-05-12T00:01:38;94008.63;;;17.45;50.72
64687;BME280;51113;53.646;-113.674;2023-05-12T00:04:07;93989.56;;;17.39;50.62
64687;BME280;51113;53.646;-113.674;2023-05-12T00:06:36;93989.78;;;17.16;47.50
64687;BME280;51113;53.646;-113.674;2023-05-12T00:09:04;94009.03;;;17.25;48.39
64687;BME280;51113;53.646;-113.674;2023-05-12T00:11:33;94016.41;;;17.23;50.44
64687;BME280;51113;53.646;-113.674;2023-05-12T00:14:01;94009.31;;;17.23;48.37
64687;BME280;51113;53.646;-113.674;2023-05-12T00:16:30;94011.25;;;17.31;48.28
64687;BME280;51113;53.646;-113.674;2023-05-12T00:18:59;94008.44;;;17.41;48.83
64687;BME280;51113;53.646;-113.674;2023-05-12T00:21:28;93987.34;;;17.19;50.37
64687;BME280;51113;53.646;-113.674;2023-05-12T00:23:56;94010.09;;;17.24;48.89
64687;BME280;51113;53.646;-113.674;2023-05-12T00:26:25;93980.44;;;17.09;48.55
64687;BME280;51113;53.646;-113.674;2023-05-12T00:28:54;93980.94;;;17.11;46.87
64687;BME280;51113;53.646;-113.674;2023-05-12T00:31:22;94009.31;;;17.37;48.23
64687;BME280;51113;53.646;-113.674;2023-05-12T00:33:51;94006.19;;;17.49;48.96
64687;BME280;51113;53.646;-113.674;2023-05-12T00:36:20;94007.94;;;17.53;47.92
64687;BME280;51113;53.646;-113.674;2023-05-12T00:38:51;93981.78;;;17.34;49.35
64687;BME280;51113;53.646;-113.674;2023-05-12T00:41:19;93977.81;;;17.23;47.29
64687;BME280;51113;53.646;-113.674;2023-05-12T00:43:48;94002.16;;;17.79;55.30
64687;BME280;51113;53.646;-113.674;2023-05-12T00:46:17;94007.59;;;18.18;53.45
64687;BME280;51113;53.646;-113.674;2023-05-12T00:48:46;93996.34;;;18.26;48.96
64687;BME280;51113;53.646;-113.674;2023-05-12T00:51:16;94010.25;;;18.04;50.67
64687;BME280;51113;53.646;-113.674;2023-05-12T00:53:44;93988.16;;;18.05;48.68
64687;BME280;51113;53.646;-113.674;2023-05-12T00:56:17;93985.22;;;18.07;47.19
64687;BME280;51113;53.646;-113.674;2023-05-12T00:58:47;94018.03;;;18.10;45.84
64687;BME280;51113;53.646;-113.674;2023-05-12T01:01:16;94010.78;;;17.93;46.69
64687;BME280;51113;53.646;-113.674;2023-05-12T01:03:45;94018.22;;;17.77;45.58
64687;BME280;51113;53.646;-113.674;2023-05-12T01:06:23;94017.84;;;17.70;46.50
64687;BME280;51113;53.646;-113.674;2023-05-12T01:08:54;94024.47;;;17.67;46.51
64687;BME280;51113;53.646;-113.674;2023-05-12T01:11:22;94026.03;;;17.68;46.19
64687;BME280;51113;53.646;-113.674;2023-05-12T01:13:51;94028.94;;;17.67;45.81
64687;BME280;51113;53.646;-113.674;2023-05-12T01:16:23;94022.03;;;17.71;45.42
64687;BME280;51113;53.646;-113.674;2023-05-12T01:18:55;94016.88;;;17.52;45.41
64687;BME280;51113;53.646;-113.674;2023-05-12T01:21:23;94038.19;;;17.51;46.24
64687;BME280;51113;53.646;-113.674;2023-05-12T01:23:57;94011.94;;;17.23;47.79
64687;BME280;51113;53.646;-113.674;2023-05-12T01:26:26;94038.69;;;17.25;47.24
64687;BME280;51113;53.646;-113.674;2023-05-12T01:28:56;94062.22;;;17.30;49.54
64687;BME280;51113;53.646;-113.674;2023-05-12T01:31:26;94080.50;;;17.22;47.21
64687;BME280;51113;53.646;-113.674;2023-05-12T01:33:55;94084.94;;;17.07;44.99
64687;BME280;51113;53.646;-113.674;2023-05-12T01:36:24;94083.91;;;16.76;41.71
64687;BME280;51113;53.646;-113.674;2023-05-12T01:38:53;94086.75;;;16.61;40.96
64687;BME280;51113;53.646;-113.674;2023-05-12T01:41:22;94094.28;;;16.48;41.20
64687;BME280;51113;53.646;-113.674;2023-05-12T01:43:51;94094.94;;;16.40;40.97
64687;BME280;51113;53.646;-113.674;2023-05-12T01:46:19;94099.81;;;16.28;42.47
64687;BME280;51113;53.646;-113.674;2023-05-12T01:48:48;94100.31;;;16.11;43.39
64687;BME280;51113;53.646;-113.674;2023-05-12T01:51:17;94083.94;;;15.82;44.97
64687;BME280;51113;53.646;-113.674;2023-05-12T01:53:45;94120.34;;;15.83;46.64
64687;BME280;51113;53.646;-113.674;2023-05-12T01:56:14;94084.63;;;15.45;48.40
64687;BME280;51113;53.646;-113.674;2023-05-12T01:58:43;94125.41;;;15.51;49.71
64687;BME280;51113;53.646;-113.674;2023-05-12T02:01:11;94124.16;;;15.43;50.59
64687;BME280;51113;53.646;-113.674;2023-05-12T02:03:40;94129.50;;;15.33;51.85
64687;BME280;51113;53.646;-113.674;2023-05-12T02:06:09;94128.66;;;15.14;53.16
64687;BME280;51113;53.646;-113.674;2023-05-12T02:08:37;94123.19;;;15.10;54.65
64687;BME280;51113;53.646;-113.674;2023-05-12T02:11:07;94098.56;;;14.88;54.73
64687;BME280;51113;53.646;-113.674;2023-05-12T02:13:36;94100.19;;;14.78;56.19
64687;BME280;51113;53.646;-113.674;2023-05-12T02:16:05;94127.91;;;14.79;58.02
64687;BME280;51113;53.646;-113.674;2023-05-12T02:18:35;94119.84;;;14.76;58.80
64687;BME280;51113;53.646;-113.674;2023-05-12T02:21:03;94128.31;;;14.63;59.71
64687;BME280;51113;53.646;-113.674;2023-05-12T02:23:31;94126.00;;;14.56;60.34
64687;BME280;51113;53.646;-113.674;2023-05-12T02:26:00;94121.03;;;14.54;60.28
64687;BME280;51113;53.646;-113.674;2023-05-12T02:28:29;94117.38;;;14.56;58.07
64687;BME280;51113;53.646;-113.674;2023-05-12T02:30:57;94120.78;;;14.56;58.77
64687;BME280;51113;53.646;-113.674;2023-05-12T02:33:26;94114.72;;;14.61;58.28
64687;BME280;51113;53.646;-113.674;2023-05-12T02:35:55;94118.75;;;14.48;59.54
64687;BME280;51113;53.646;-113.674;2023-05-12T02:38:23;94124.00;;;14.38;59.76
64687;BME280;51113;53.646;-113.674;2023-05-12T02:40:52;94130.63;;;14.25;59.40
64687;BME280;51113;53.646;-113.674;2023-05-12T02:43:20;94135.56;;;14.27;59.43
64687;BME280;51113;53.646;-113.674;2023-05-12T02:45:49;94131.47;;;14.15;60.87
64687;BME280;51113;53.646;-113.674;2023-05-12T02:48:18;94129.94;;;14.09;60.45
64687;BME280;51113;53.646;-113.674;2023-05-12T02:50:47;94116.94;;;13.94;61.31
64687;BME280;51113;53.646;-113.674;2023-05-12T02:53:16;94133.31;;;14.10;60.30
64687;BME280;51113;53.646;-113.674;2023-05-12T02:55:44;94105.47;;;13.90;60.08
64687;BME280;51113;53.646;-113.674;2023-05-12T02:58:13;94128.41;;;14.03;59.38
64687;BME280;51113;53.646;-113.674;2023-05-12T03:00:41;94130.78;;;13.95;59.95
64687;BME280;51113;53.646;-113.674;2023-05-12T03:03:10;94128.97;;;13.90;59.77
64687;BME280;51113;53.646;-113.674;2023-05-12T03:05:39;94129.53;;;13.87;59.30
64687;BME280;51113;53.646;-113.674;2023-05-12T03:08:08;94131.09;;;13.83;59.66
64687;BME280;51113;53.646;-113.674;2023-05-12T03:10:36;94132.19;;;13.72;59.26
64687;BME280;51113;53.646;-113.674;2023-05-12T03:13:05;94113.47;;;13.54;59.03
64687;BME280;51113;53.646;-113.674;2023-05-12T03:15:34;94139.28;;;13.61;60.65
64687;BME280;51113;53.646;-113.674;2023-05-12T03:18:04;94139.63;;;13.34;62.07
64687;BME280;51113;53.646;-113.674;2023-05-12T03:20:32;94145.66;;;13.24;61.05
64687;BME280;51113;53.646;-113.674;2023-05-12T03:23:01;94139.13;;;13.17;61.79
64687;BME280;51113;53.646;-113.674;2023-05-12T03:25:31;94110.44;;;13.02;59.73
64687;BME280;51113;53.646;-113.674;2023-05-12T03:28:01;94138.63;;;13.20;60.76
64687;BME280;51113;53.646;-113.674;2023-05-12T03:30:30;94127.13;;;13.01;60.02
64687;BME280;51113;53.646;-113.674;2023-05-12T03:33:00;94150.59;;;13.11;60.34
64687;BME280;51113;53.646;-113.674;2023-05-12T03:35:28;94143.84;;;12.94;60.87
64687;BME280;51113;53.646;-113.674;2023-05-12T03:37:58;94133.94;;;12.81;60.63
64687;BME280;51113;53.646;-113.674;2023-05-12T03:40:27;94160.78;;;12.97;60.35
64687;BME280;51113;53.646;-113.674;2023-05-12T03:42:56;94156.34;;;12.87;61.45
64687;BME280;51113;53.646;-113.674;2023-05-12T03:45:25;94167.31;;;12.74;63.78
64687;BME280;51113;53.646;-113.674;2023-05-12T03:47:53;94166.00;;;12.67;63.38
64687;BME280;51113;53.646;-113.674;2023-05-12T03:50:22;94165.72;;;12.63;63.22
64687;BME280;51113;53.646;-113.674;2023-05-12T03:52:51;94178.50;;;12.65;63.99
64687;BME280;51113;53.646;-113.674;2023-05-12T03:55:22;94174.34;;;12.64;64.38
64687;BME280;51113;53.646;-113.674;2023-05-12T03:57:51;94178.75;;;12.63;63.85
64687;BME280;51113;53.646;-113.674;2023-05-12T04:00:20;94191.28;;;12.66;64.00
64687;BME280;51113;53.646;-113.674;2023-05-12T04:02:49;94192.31;;;12.60;64.98
64687;BME280;51113;53.646;-113.674;2023-05-12T04:05:18;94196.22;;;12.63;64.52
64687;BME280;51113;53.646;-113.674;2023-05-12T04:07:46;94195.94;;;12.59;65.04
64687;BME280;51113;53.646;-113.674;2023-05-12T04:10:15;94207.94;;;12.65;64.26
64687;BME280;51113;53.646;-113.674;2023-05-12T04:12:44;94195.94;;;12.59;64.19
64687;BME280;51113;53.646;-113.674;2023-05-12T04:15:13;94230.63;;;12.75;64.62
64687;BME280;51113;53.646;-113.674;2023-05-12T04:17:42;94230.13;;;12.83;65.14
64687;BME280;51113;53.646;-113.674;2023-05-12T04:20:11;94209.53;;;12.76;64.26
64687;BME280;51113;53.646;-113.674;2023-05-12T04:22:40;94234.56;;;12.92;64.42
64687;BME280;51113;53.646;-113.674;2023-05-12T04:25:08;94237.44;;;12.91;64.56
64687;BME280;51113;53.646;-113.674;2023-05-12T04:27:37;94222.56;;;12.86;63.71
64687;BME280;51113;53.646;-113.674;2023-05-12T04:30:06;94248.91;;;13.05;63.10
64687;BME280;51113;53.646;-113.674;2023-05-12T04:32:34;94243.44;;;13.02;63.76
64687;BME280;51113;53.646;-113.674;2023-05-12T04:35:03;94241.88;;;13.06;64.43
64687;BME280;51113;53.646;-113.674;2023-05-12T04:37:33;94245.00;;;13.03;65.64
64687;BME280;51113;53.646;-113.674;2023-05-12T04:40:02;94250.72;;;12.94;66.52
64687;BME280;51113;53.646;-113.674;2023-05-12T04:42:31;94246.28;;;12.95;67.28
64687;BME280;51113;53.646;-113.674;2023-05-12T04:45:01;94252.03;;;12.92;67.45
64687;BME280;51113;53.646;-113.674;2023-05-12T04:47:29;94254.91;;;12.90;67.31
64687;BME280;51113;53.646;-113.674;2023-05-12T04:49:58;94249.44;;;12.92;67.56
64687;BME280;51113;53.646;-113.674;2023-05-12T04:52:26;94242.63;;;12.86;67.61
64687;BME280;51113;53.646;-113.674;2023-05-12T04:54:55;94240.56;;;12.88;67.41
64687;BME280;51113;53.646;-113.674;2023-05-12T04:57:24;94241.06;;;12.85;67.80
64687;BME280;51113;53.646;-113.674;2023-05-12T04:59:52;94238.72;;;12.88;67.21
64687;BME280;51113;53.646;-113.674;2023-05-12T05:02:21;94235.34;;;12.93;66.71
64687;BME280;51113;53.646;-113.674;2023-05-12T05:04:51;94230.41;;;12.91;66.69
64687;BME280;51113;53.646;-113.674;2023-05-12T05:07:20;94225.19;;;12.91;66.66
64687;BME280;51113;53.646;-113.674;2023-05-12T05:09:48;94242.38;;;12.87;67.22
64687;BME280;51113;53.646;-113.674;2023-05-12T05:12:17;94216.81;;;12.69;67.71
64687;BME280;51113;53.646;-113.674;2023-05-12T05:14:46;94244.44;;;12.75;67.83
64687;BME280;51113;53.646;-113.674;2023-05-12T05:17:14;94238.72;;;12.68;68.59
64687;BME280;51113;53.646;-113.674;2023-05-12T05:19:43;94236.59;;;12.60;69.10
64687;BME280;51113;53.646;-113.674;2023-05-12T05:22:24;94242.56;;;12.50;69.52
64687;BME280;51113;53.646;-113.674;2023-05-12T05:24:53;94233.97;;;12.45;69.66
64687;BME280;51113;53.646;-113.674;2023-05-12T05:27:22;94235.53;;;12.41;69.93
64687;BME280;51113;53.646;-113.674;2023-05-12T05:29:50;94207.06;;;12.19;70.35
64687;BME280;51113;53.646;-113.674;2023-05-12T05:32:19;94230.00;;;12.22;70.84
64687;BME280;51113;53.646;-113.674;2023-05-12T05:34:48;94225.00;;;12.10;71.48
64687;BME280;51113;53.646;-113.674;2023-05-12T05:37:17;94200.69;;;11.84;71.59
64687;BME280;51113;53.646;-113.674;2023-05-12T05:39:46;94228.63;;;12.04;70.86
64687;BME280;51113;53.646;-113.674;2023-05-12T05:42:15;94225.72;;;11.95;71.18
64687;BME280;51113;53.646;-113.674;2023-05-12T05:44:43;94229.34;;;11.89;71.45
64687;BME280;51113;53.646;-113.674;2023-05-12T05:47:12;94228.50;;;11.79;71.12
64687;BME280;51113;53.646;-113.674;2023-05-12T05:49:41;94235.44;;;11.63;71.92
64687;BME280;51113;53.646;-113.674;2023-05-12T05:52:09;94226.72;;;11.42;72.67
64687;BME280;51113;53.646;-113.674;2023-05-12T05:54:38;94222.19;;;11.27;72.58
64687;BME280;51113;53.646;-113.674;2023-05-12T05:57:06;94223.41;;;11.15;72.97
64687;BME280;51113;53.646;-113.674;2023-05-12T05:59:34;94231.66;;;11.07;73.46
64687;BME280;51113;53.646;-113.674;2023-05-12T06:02:04;94224.13;;;11.05;73.82
64687;BME280;51113;53.646;-113.674;2023-05-12T06:04:33;94220.06;;;11.19;72.93
64687;BME280;51113;53.646;-113.674;2023-05-12T06:07:01;94218.72;;;11.12;73.09
64687;BME280;51113;53.646;-113.674;2023-05-12T06:09:29;94230.31;;;10.99;73.90
64687;BME280;51113;53.646;-113.674;2023-05-12T06:11:59;94227.00;;;11.09;74.02
64687;BME280;51113;53.646;-113.674;2023-05-12T06:14:28;94230.56;;;10.97;74.43
64687;BME280;51113;53.646;-113.674;2023-05-12T06:16:59;94236.13;;;10.79;74.01
64687;BME280;51113;53.646;-113.674;2023-05-12T06:19:28;94237.84;;;10.68;74.72
64687;BME280;51113;53.646;-113.674;2023-05-12T06:21:56;94235.34;;;10.52;74.98
64687;BME280;51113;53.646;-113.674;2023-05-12T06:24:25;94242.75;;;10.38;75.37
64687;BME280;51113;53.646;-113.674;2023-05-12T06:26:54;94230.88;;;10.20;75.76
64687;BME280;51113;53.646;-113.674;2023-05-12T06:29:23;94242.19;;;10.14;76.85
64687;BME280;51113;53.646;-113.674;2023-05-12T06:31:52;94227.84;;;10.28;76.47
64687;BME280;51113;53.646;-113.674;2023-05-12T06:34:20;94242.84;;;10.04;76.93
64687;BME280;51113;53.646;-113.674;2023-05-12T06:36:48;94242.19;;;9.70;78.41
64687;BME280;51113;53.646;-113.674;2023-05-12T06:39:20;94255.00;;;9.60;79.04
64687;BME280;51113;53.646;-113.674;2023-05-12T06:41:48;94252.97;;;9.62;78.77
64687;BME280;51113;53.646;-113.674;2023-05-12T06:44:17;94240.09;;;9.51;78.46
64687;BME280;51113;53.646;-113.674;2023-05-12T06:46:45;94243.56;;;9.39;78.78
64687;BME280;51113;53.646;-113.674;2023-05-12T06:49:14;94255.75;;;9.39;78.67
64687;BME280;51113;53.646;-113.674;2023-05-12T06:51:43;94241.88;;;9.12;78.87
64687;BME280;51113;53.646;-113.674;2023-05-12T06:54:11;94259.06;;;9.18;79.41
64687;BME280;51113;53.646;-113.674;2023-05-12T06:56:40;94247.44;;;9.03;78.30
64687;BME280;51113;53.646;-113.674;2023-05-12T06:59:09;94258.19;;;8.95;78.73
64687;BME280;51113;53.646;-113.674;2023-05-12T07:01:37;94220.97;;;8.68;79.52
64687;BME280;51113;53.646;-113.674;2023-05-12T07:04:06;94221.13;;;8.61;79.95
64687;BME280;51113;53.646;-113.674;2023-05-12T07:06:35;94251.66;;;8.76;79.38
64687;BME280;51113;53.646;-113.674;2023-05-12T07:09:04;94254.53;;;8.63;80.35
64687;BME280;51113;53.646;-113.674;2023-05-12T07:11:33;94236.28;;;8.41;81.08
64687;BME280;51113;53.646;-113.674;2023-05-12T07:14:02;94243.59;;;8.44;81.82
64687;BME280;51113;53.646;-113.674;2023-05-12T07:16:31;94262.69;;;8.55;80.80
64687;BME280;51113;53.646;-113.674;2023-05-12T07:18:59;94239.81;;;8.35;80.83
64687;BME280;51113;53.646;-113.674;2023-05-12T07:21:28;94258.66;;;8.47;81.65
64687;BME280;51113;53.646;-113.674;2023-05-12T07:23:57;94257.66;;;8.48;81.71
64687;BME280;51113;53.646;-113.674;2023-05-12T07:26:26;94233.94;;;8.39;81.99
64687;BME280;51113;53.646;-113.674;2023-05-12T07:28:56;94237.31;;;8.40;82.01
64687;BME280;51113;53.646;-113.674;2023-05-12T07:31:27;94253.13;;;8.55;81.91
64687;BME280;51113;53.646;-113.674;2023-05-12T07:33:57;94275.72;;;8.60;82.03
64687;BME280;51113;53.646;-113.674;2023-05-12T07:36:26;94278.84;;;8.62;82.06
64687;BME280;51113;53.646;-113.674;2023-05-12T07:38:55;94270.41;;;8.66;82.31
64687;BME280;51113;53.646;-113.674;2023-05-12T07:41:23;94267.34;;;8.69;82.40
64687;BME280;51113;53.646;-113.674;2023-05-12T07:43:52;94266.09;;;8.72;82.44
64687;BME280;51113;53.646;-113.674;2023-05-12T07:46:21;94242.63;;;8.62;82.30
64687;BME280;51113;53.646;-113.674;2023-05-12T07:48:50;94270.34;;;8.78;82.15
64687;BME280;51113;53.646;-113.674;2023-05-12T07:51:18;94267.19;;;8.76;82.31
64687;BME280;51113;53.646;-113.674;2023-05-12T07:53:47;94274.97;;;8.76;82.20
64687;BME280;51113;53.646;-113.674;2023-05-12T07:56:15;94290.13;;;8.84;81.57
64687;BME280;51113;53.646;-113.674;2023-05-12T07:58:45;94283.28;;;8.78;81.71
64687;BME280;51113;53.646;-113.674;2023-05-12T08:01:14;94284.22;;;8.72;81.66
64687;BME280;51113;53.646;-113.674;2023-05-12T08:03:42;94281.06;;;8.70;81.92
64687;BME280;51113;53.646;-113.674;2023-05-12T08:06:12;94285.78;;;8.73;82.35
64687;BME280;51113;53.646;-113.674;2023-05-12T08:08:40;94279.50;;;8.69;81.89
64687;BME280;51113;53.646;-113.674;2023-05-12T08:11:09;94264.16;;;8.51;82.30
64687;BME280;51113;53.646;-113.674;2023-05-12T08:13:38;94294.94;;;8.64;82.05
64687;BME280;51113;53.646;-113.674;2023-05-12T08:16:07;94295.19;;;8.62;81.31
64687;BME280;51113;53.646;-113.674;2023-05-12T08:18:35;94286.16;;;8.36;80.93
64687;BME280;51113;53.646;-113.674;2023-05-12T08:21:04;94315.84;;;8.46;81.75
64687;BME280;51113;53.646;-113.674;2023-05-12T08:23:32;94288.41;;;8.33;82.09
64687;BME280;51113;53.646;-113.674;2023-05-12T08:26:01;94315.47;;;8.54;81.52
64687;BME280;51113;53.646;-113.674;2023-05-12T08:28:29;94320.88;;;8.52;81.22
64687;BME280;51113;53.646;-113.674;2023-05-12T08:30:58;94314.72;;;8.41;81.88
64687;BME280;51113;53.646;-113.674;2023-05-12T08:33:30;94297.53;;;8.24;81.77
64687;BME280;51113;53.646;-113.674;2023-05-12T08:36:00;94293.84;;;8.08;81.42
64687;BME280;51113;53.646;-113.674;2023-05-12T08:38:28;94326.91;;;8.18;81.07
64687;BME280;51113;53.646;-113.674;2023-05-12T08:41:13;94309.41;;;7.85;81.83
64687;BME280;51113;53.646;-113.674;2023-05-12T08:43:46;94337.63;;;7.98;82.72
64687;BME280;51113;53.646;-113.674;2023-05-12T08:46:17;94336.59;;;7.99;82.67
64687;BME280;51113;53.646;-113.674;2023-05-12T08:48:49;94345.94;;;7.88;82.75
64687;BME280;51113;53.646;-113.674;2023-05-12T08:51:19;94305.03;;;7.62;82.92
64687;BME280;51113;53.646;-113.674;2023-05-12T08:53:54;94342.59;;;7.76;83.73
64687;BME280;51113;53.646;-113.674;2023-05-12T08:56:27;94306.50;;;7.46;83.74
64687;BME280;51113;53.646;-113.674;2023-05-12T08:59:00;94348.31;;;7.66;84.32
64687;BME280;51113;53.646;-113.674;2023-05-12T09:01:34;94314.25;;;7.46;83.61
64687;BME280;51113;53.646;-113.674;2023-05-12T09:04:06;94343.94;;;7.55;83.66
64687;BME280;51113;53.646;-113.674;2023-05-12T09:06:34;94352.34;;;7.51;83.08
64687;BME280;51113;53.646;-113.674;2023-05-12T09:09:03;94343.69;;;7.45;82.83
64687;BME280;51113;53.646;-113.674;2023-05-12T09:11:31;94348.06;;;7.33;83.36
64687;BME280;51113;53.646;-113.674;2023-05-12T09:14:03;94363.44;;;7.28;84.73
64687;BME280;51113;53.646;-113.674;2023-05-12T09:16:36;94338.38;;;7.28;84.89
64687;BME280;51113;53.646;-113.674;2023-05-12T09:19:06;94366.06;;;7.51;84.95
64687;BME280;51113;53.646;-113.674;2023-05-12T09:21:35;94370.13;;;7.59;84.28
64687;BME280;51113;53.646;-113.674;2023-05-12T09:24:06;94371.91;;;7.58;84.60
64687;BME280;51113;53.646;-113.674;2023-05-12T09:26:47;94375.38;;;7.40;83.83
64687;BME280;51113;53.646;-113.674;2023-05-12T09:29:16;94373.56;;;7.29;83.69
64687;BME280;51113;53.646;-113.674;2023-05-12T09:31:59;94377.34;;;7.15;83.63
64687;BME280;51113;53.646;-113.674;2023-05-12T09:34:31;94372.03;;;7.10;83.90
64687;BME280;51113;53.646;-113.674;2023-05-12T09:37:03;94377.31;;;7.03;84.46
64687;BME280;51113;53.646;-113.674;2023-05-12T09:39:33;94381.91;;;7.01;84.31
64687;BME280;51113;53.646;-113.674;2023-05-12T09:42:02;94364.44;;;6.85;84.81
64687;BME280;51113;53.646;-113.674;2023-05-12T09:44:31;94377.25;;;6.92;85.57
64687;BME280;51113;53.646;-113.674;2023-05-12T09:47:06;94373.41;;;6.83;85.52
64687;BME280;51113;53.646;-113.674;2023-05-12T09:49:35;94386.97;;;6.78;85.77
64687;BME280;51113;53.646;-113.674;2023-05-12T09:52:05;94400.63;;;6.97;87.37
64687;BME280;51113;53.646;-113.674;2023-05-12T09:54:33;94385.81;;;7.34;87.07
64687;BME280;51113;53.646;-113.674;2023-05-12T09:57:03;94391.41;;;7.31;86.89
64687;BME280;51113;53.646;-113.674;2023-05-12T09:59:35;94357.53;;;6.97;86.50
64687;BME280;51113;53.646;-113.674;2023-05-12T10:02:08;94393.44;;;7.29;87.78
64687;BME280;51113;53.646;-113.674;2023-05-12T10:04:48;94389.63;;;7.43;86.63
64687;BME280;51113;53.646;-113.674;2023-05-12T10:07:21;94405.66;;;7.22;85.88
64687;BME280;51113;53.646;-113.674;2023-05-12T10:09:58;94405.31;;;7.18;86.69
64687;BME280;51113;53.646;-113.674;2023-05-12T10:12:28;94406.94;;;7.01;86.42
64687;BME280;51113;53.646;-113.674;2023-05-12T10:14:58;94417.19;;;7.07;86.94
64687;BME280;51113;53.646;-113.674;2023-05-12T10:17:28;94423.66;;;6.98;86.66
64687;BME280;51113;53.646;-113.674;2023-05-12T10:20:01;94423.66;;;6.98;86.83
64687;BME280;51113;53.646;-113.674;2023-05-12T10:22:33;94391.09;;;6.97;87.51
64687;BME280;51113;53.646;-113.674;2023-05-12T10:25:02;94425.66;;;7.26;86.91
64687;BME280;51113;53.646;-113.674;2023-05-12T10:27:32;94402.00;;;6.99;87.10
64687;BME280;51113;53.646;-113.674;2023-05-12T10:30:02;94429.44;;;7.12;86.50
64687;BME280;51113;53.646;-113.674;2023-05-12T10:32:32;94436.56;;;6.98;86.52
64687;BME280;51113;53.646;-113.674;2023-05-12T10:35:10;94439.66;;;6.89;86.49
64687;BME280;51113;53.646;-113.674;2023-05-12T10:37:41;94436.16;;;6.83;86.00
64687;BME280;51113;53.646;-113.674;2023-05-12T10:40:10;94438.53;;;6.66;85.76
64687;BME280;51113;53.646;-113.674;2023-05-12T10:42:50;94447.78;;;6.56;85.89
64687;BME280;51113;53.646;-113.674;2023-05-12T10:45:19;94455.25;;;6.45;87.42
64687;BME280;51113;53.646;-113.674;2023-05-12T10:47:49;94428.28;;;6.23;86.94
64687;BME280;51113;53.646;-113.674;2023-05-12T10:50:27;94462.41;;;6.43;87.48
64687;BME280;51113;53.646;-113.674;2023-05-12T10:52:56;94467.63;;;6.37;86.88
64687;BME280;51113;53.646;-113.674;2023-05-12T10:55:41;94472.22;;;6.35;86.64
64687;BME280;51113;53.646;-113.674;2023-05-12T10:58:12;94435.56;;;6.08;86.40
64687;BME280;51113;53.646;-113.674;2023-05-12T11:00:51;94444.53;;;6.05;87.77
64687;BME280;51113;53.646;-113.674;2023-05-12T11:03:23;94485.13;;;6.71;90.12
64687;BME280;51113;53.646;-113.674;2023-05-12T11:06:01;94485.50;;;6.75;89.25
64687;BME280;51113;53.646;-113.674;2023-05-12T11:08:31;94485.72;;;6.55;88.30
64687;BME280;51113;53.646;-113.674;2023-05-12T11:11:03;94490.13;;;6.48;88.30
64687;BME280;51113;53.646;-113.674;2023-05-12T11:13:32;94491.22;;;6.40;87.90
64687;BME280;51113;53.646;-113.674;2023-05-12T11:16:03;94496.66;;;6.32;87.52
64687;BME280;51113;53.646;-113.674;2023-05-12T11:18:31;94494.41;;;6.18;87.19
64687;BME280;51113;53.646;-113.674;2023-05-12T11:21:08;94491.88;;;6.11;87.26
64687;BME280;51113;53.646;-113.674;2023-05-12T11:23:37;94490.28;;;6.10;88.35
64687;BME280;51113;53.646;-113.674;2023-05-12T11:26:16;94501.19;;;6.73;90.40
64687;BME280;51113;53.646;-113.674;2023-05-12T11:28:44;94500.97;;;6.93;90.55
64687;BME280;51113;53.646;-113.674;2023-05-12T11:31:17;94500.97;;;7.11;89.84
64687;BME280;51113;53.646;-113.674;2023-05-12T11:33:49;94500.53;;;7.15;89.08
64687;BME280;51113;53.646;-113.674;2023-05-12T11:36:40;94505.47;;;7.16;88.61
64687;BME280;51113;53.646;-113.674;2023-05-12T11:39:15;94507.09;;;7.29;89.09
64687;BME280;51113;53.646;-113.674;2023-05-12T11:41:44;94496.34;;;7.32;88.58
64687;BME280;51113;53.646;-113.674;2023-05-12T11:44:20;94466.81;;;7.09;88.12
64687;BME280;51113;53.646;-113.674;2023-05-12T11:46:54;94507.81;;;7.36;87.68
64687;BME280;51113;53.646;-113.674;2023-05-12T11:49:22;94514.56;;;7.37;87.91
64687;BME280;51113;53.646;-113.674;2023-05-12T11:51:53;94518.56;;;7.33;87.49
64687;BME280;51113;53.646;-113.674;2023-05-12T11:54:22;94517.03;;;7.13;87.46
64687;BME280;51113;53.646;-113.674;2023-05-12T11:56:53;94519.69;;;7.07;87.72
64687;BME280;51113;53.646;-113.674;2023-05-12T11:59:40;94518.59;;;7.15;88.03
64687;BME280;51113;53.646;-113.674;2023-05-12T12:02:19;94524.97;;;7.30;88.06
64687;BME280;51113;53.646;-113.674;2023-05-12T12:04:48;94522.75;;;7.34;88.02
64687;BME280;51113;53.646;-113.674;2023-05-12T12:07:33;94497.06;;;7.21;87.51
64687;BME280;51113;53.646;-113.674;2023-05-12T12:10:11;94528.03;;;7.39;87.30
64687;BME280;51113;53.646;-113.674;2023-05-12T12:12:41;94535.31;;;7.30;87.18
64687;BME280;51113;53.646;-113.674;2023-05-12T12:15:10;94531.09;;;7.18;86.76
64687;BME280;51113;53.646;-113.674;2023-05-12T12:17:39;94544.72;;;7.06;86.60
64687;BME280;51113;53.646;-113.674;2023-05-12T12:20:08;94545.59;;;7.00;85.98
64687;BME280;51113;53.646;-113.674;2023-05-12T12:22:37;94535.25;;;6.82;85.94
64687;BME280;51113;53.646;-113.674;2023-05-12T12:25:07;94550.16;;;6.80;86.30
64687;BME280;51113;53.646;-113.674;2023-05-12T12:27:36;94558.13;;;6.78;87.26
64687;BME280;51113;53.646;-113.674;2023-05-12T12:30:05;94559.72;;;6.79;87.21
64687;BME280;51113;53.646;-113.674;2023-05-12T12:32:33;94561.00;;;6.70;87.25
64687;BME280;51113;53.646;-113.674;2023-05-12T12:35:02;94558.34;;;6.77;88.51
64687;BME280;51113;53.646;-113.674;2023-05-12T12:37:33;94562.28;;;6.79;87.55
64687;BME280;51113;53.646;-113.674;2023-05-12T12:40:02;94540.41;;;6.64;87.87
64687;BME280;51113;53.646;-113.674;2023-05-12T12:42:36;94561.88;;;7.01;88.66
64687;BME280;51113;53.646;-113.674;2023-05-12T12:45:05;94566.53;;;7.10;88.65
64687;BME280;51113;53.646;-113.674;2023-05-12T12:47:36;94527.09;;;6.85;88.14
64687;BME280;51113;53.646;-113.674;2023-05-12T12:50:06;94544.88;;;6.93;88.12